Time;durP1;ratioP1;P1;durP2;ratioP2;P2;SDS_P1;SDS_P2;PMS_P1;PMS_P2;Temp;Humidity;BMP_temperature;BMP_pressure;BME280_temperature;BME280_humidity;BME280_pressure;Samples;Min_cycle;Max_cycle;Signal;HPM_P1;HPM_P2
2022/07/09 00:03:55;;;;;;;2.83;2.50;;;18.80;68.70;;;;;;10486564;28;20216;-77
2022/07/09 00:08:59;;;;;;;3.23;2.20;;;18.80;68.60;;;;;;10486922;28;20208;-77
2022/07/09 00:14:01;;;;;;;2.30;2.10;;;18.80;67.90;;;;;;10486043;28;20275;-77
2022/07/09 00:19:04;;;;;;;3.07;2.30;;;18.70;68.30;;;;;;10487136;28;20287;-77
2022/07/09 00:24:07;;;;;;;2.50;2.33;;;18.70;68.90;;;;;;10486904;28;20311;-77
2022/07/09 00:29:09;;;;;;;3.43;2.40;;;18.60;70.00;;;;;;10487505;28;20819;-77
2022/07/09 00:34:12;;;;;;;3.40;2.50;;;18.60;68.50;;;;;;10486508;28;20299;-77
2022/07/09 00:39:15;;;;;;;4.70;2.80;;;18.60;70.70;;;;;;10484947;28;20255;-77
2022/07/09 00:44:17;;;;;;;3.30;2.80;;;18.50;70.20;;;;;;10487445;28;20266;-77
2022/07/09 00:49:19;;;;;;;2.43;2.30;;;18.50;72.20;;;;;;10485406;28;20279;-77
2022/07/09 00:54:24;;;;;;;2.10;2.00;;;18.50;71.00;;;;;;10485496;28;20224;-77
2022/07/09 00:59:26;;;;;;;3.67;2.57;;;18.40;71.00;;;;;;10487100;28;20212;-77
2022/07/09 01:04:28;;;;;;;2.80;2.60;;;18.40;69.90;;;;;;10489852;28;20256;-77
2022/07/09 01:09:32;;;;;;;2.37;2.17;;;18.40;71.40;;;;;;10492399;28;20275;-77
2022/07/09 01:14:34;;;;;;;3.37;2.60;;;18.40;69.60;;;;;;10492981;28;20705;-77
2022/07/09 01:19:37;;;;;;;3.03;2.47;;;18.30;71.40;;;;;;10491248;28;20224;-77
2022/07/09 01:24:41;;;;;;;5.23;2.17;;;18.30;71.40;;;;;;10466869;28;20426;-77
2022/07/09 01:29:48;;;;;;;2.50;2.30;;;18.30;72.10;;;;;;10487347;28;20599;-78
2022/07/09 01:34:50;;;;;;;3.93;2.30;;;18.30;72.00;;;;;;10492250;28;20926;-77
2022/07/09 01:39:53;;;;;;;3.37;2.67;;;18.20;72.10;;;;;;10499068;28;20232;-76
2022/07/09 01:44:55;;;;;;;2.60;2.40;;;18.10;73.80;;;;;;10486557;28;20220;-77
2022/07/09 01:49:58;;;;;;;2.30;2.20;;;18.10;71.10;;;;;;10486646;28;20246;-77
2022/07/09 01:55:01;;;;;;;2.30;2.00;;;18.10;70.80;;;;;;10491396;28;20202;-77
2022/07/09 02:00:05;;;;;;;3.43;2.80;;;18.00;72.90;;;;;;10488263;28;20248;-76
2022/07/09 02:05:14;;;;;;;2.93;2.40;;;17.90;73.50;;;;;;10486485;28;20228;-77
2022/07/09 02:10:17;;;;;;;2.27;2.17;;;17.90;73.60;;;;;;10487712;28;20228;-77
2022/07/09 02:15:20;;;;;;;2.73;2.40;;;17.90;72.80;;;;;;10498741;28;20224;-77
2022/07/09 02:20:22;;;;;;;2.63;2.13;;;17.90;73.90;;;;;;10498509;28;20216;-77
2022/07/09 02:25:26;;;;;;;3.07;2.67;;;17.80;74.30;;;;;;10498859;28;20224;-77
2022/07/09 02:30:29;;;;;;;2.97;2.77;;;17.90;72.70;;;;;;10498831;28;20220;-77
2022/07/09 02:35:31;;;;;;;3.83;2.53;;;17.80;73.90;;;;;;10496689;28;20569;-77
2022/07/09 02:40:34;;;;;;;3.63;2.40;;;17.70;72.00;;;;;;10498959;28;20224;-77
2022/07/09 02:45:36;;;;;;;2.87;2.47;;;17.70;74.70;;;;;;10498980;28;20212;-77
2022/07/09 02:50:39;;;;;;;2.97;2.70;;;17.60;74.60;;;;;;10497853;28;20303;-77
2022/07/09 02:55:42;;;;;;;3.77;2.63;;;17.60;73.50;;;;;;10499544;28;20231;-77
2022/07/09 03:00:44;;;;;;;4.50;3.17;;;17.60;74.00;;;;;;10499593;28;20296;-77
2022/07/09 03:05:46;;;;;;;2.73;2.63;;;17.60;74.50;;;;;;10497797;28;20712;-77
2022/07/09 03:10:50;;;;;;;3.87;2.90;;;17.60;74.00;;;;;;10497449;28;20247;-77
2022/07/09 03:15:52;;;;;;;5.13;3.07;;;17.60;75.10;;;;;;10497168;28;20203;-77
2022/07/09 03:20:55;;;;;;;3.40;2.77;;;17.50;74.40;;;;;;10497016;28;20245;-77
2022/07/09 03:25:58;;;;;;;5.70;2.63;;;17.50;74.60;;;;;;10495744;28;20220;-77
2022/07/09 03:31:01;;;;;;;3.37;3.10;;;17.40;75.40;;;;;;10496346;28;20223;-77
2022/07/09 03:36:03;;;;;;;4.40;3.00;;;17.40;75.00;;;;;;10495776;28;20656;-77
2022/07/09 03:41:07;;;;;;;7.13;3.23;;;17.40;75.20;;;;;;10495945;28;20270;-77
2022/07/09 03:46:09;;;;;;;2.90;2.70;;;17.40;75.70;;;;;;10493820;28;20234;-77
2022/07/09 03:51:11;;;;;;;4.30;3.00;;;17.40;73.90;;;;;;10494116;28;20217;-77
2022/07/09 03:56:15;;;;;;;3.70;3.40;;;17.40;74.90;;;;;;10497421;28;20722;-79
2022/07/09 04:01:17;;;;;;;2.93;2.70;;;17.30;75.20;;;;;;10499948;28;20239;-77
2022/07/09 04:06:20;;;;;;;3.90;3.43;;;17.30;75.60;;;;;;10495118;28;20667;-77
2022/07/09 04:11:23;;;;;;;3.87;3.23;;;17.40;75.10;;;;;;10493820;28;20220;-77
2022/07/09 04:16:25;;;;;;;4.13;2.73;;;17.40;74.70;;;;;;10492839;28;20197;-77
2022/07/09 04:21:27;;;;;;;5.10;3.07;;;17.40;75.90;;;;;;10487647;28;20228;-77
2022/07/09 04:26:31;;;;;;;4.57;3.40;;;17.40;75.80;;;;;;10492681;28;20311;-77
2022/07/09 04:31:33;;;;;;;3.00;2.63;;;17.40;76.20;;;;;;10493801;28;20270;-77
2022/07/09 04:36:35;;;;;;;5.57;3.23;;;17.40;75.90;;;;;;10493314;28;20192;-76
2022/07/09 04:41:38;;;;;;;4.63;2.90;;;17.40;75.70;;;;;;10493813;28;20269;-76
2022/07/09 04:46:40;;;;;;;3.70;3.30;;;17.40;77.00;;;;;;10492699;28;20219;-76
2022/07/09 04:51:42;;;;;;;5.10;3.63;;;17.40;76.60;;;;;;10491809;28;20597;-76
2022/07/09 04:56:46;;;;;;;5.50;3.63;;;17.50;76.60;;;;;;10489221;28;20193;-76
2022/07/09 05:01:48;;;;;;;6.20;3.70;;;17.50;77.20;;;;;;10487624;28;20248;-76
2022/07/09 05:06:58;;;;;;;3.10;2.90;;;17.60;77.10;;;;;;10492768;28;20304;-76
2022/07/09 05:12:02;;;;;;;4.83;3.13;;;17.60;77.10;;;;;;10478350;28;20700;-76
2022/07/09 05:17:05;;;;;;;3.50;3.20;;;17.70;78.20;;;;;;10500500;28;20200;-76
2022/07/09 05:22:07;;;;;;;3.70;2.60;;;17.80;77.60;;;;;;10500382;28;20216;-76
2022/07/09 05:27:11;;;;;;;3.57;3.00;;;17.90;76.70;;;;;;10500132;28;20714;-76
2022/07/09 05:32:13;;;;;;;3.80;2.87;;;17.90;76.60;;;;;;10500117;28;20274;-76
2022/07/09 05:37:15;;;;;;;4.47;3.60;;;18.00;78.00;;;;;;10499982;28;20275;-76
2022/07/09 05:42:18;;;;;;;3.60;3.30;;;18.10;76.90;;;;;;10492040;28;20232;-76
2022/07/09 05:47:20;;;;;;;4.10;3.73;;;18.30;76.00;;;;;;10495694;28;20688;-76
2022/07/09 05:52:23;;;;;;;4.60;3.17;;;18.30;77.00;;;;;;10499270;28;20216;-76
2022/07/09 05:57:26;;;;;;;3.97;3.50;;;18.40;74.60;;;;;;10498215;28;20212;-76
2022/07/09 06:02:28;;;;;;;4.33;3.83;;;18.50;75.80;;;;;;10499043;28;20216;-76
2022/07/09 06:07:30;;;;;;;4.83;3.43;;;18.60;76.30;;;;;;10497145;28;20722;-76
2022/07/09 06:12:35;;;;;;;4.57;3.90;;;18.70;76.10;;;;;;10495100;28;20251;-76
2022/07/09 06:17:37;;;;;;;4.60;3.83;;;18.80;76.40;;;;;;10495048;28;20668;-75
2022/07/09 06:22:39;;;;;;;4.10;3.70;;;18.90;75.60;;;;;;10485049;28;20209;-76
2022/07/09 06:27:43;;;;;;;4.20;3.90;;;19.00;77.60;;;;;;10497945;28;20706;-76
2022/07/09 06:32:45;;;;;;;4.93;4.47;;;19.10;76.20;;;;;;10487724;28;20225;-79
2022/07/09 06:37:47;;;;;;;4.30;3.90;;;19.30;77.60;;;;;;10497074;28;20196;-77
2022/07/09 06:42:51;;;;;;;4.10;3.70;;;19.60;77.90;;;;;;10487503;28;20220;-76
2022/07/09 06:47:56;;;;;;;5.13;3.60;;;19.90;75.80;;;;;;10492831;28;20222;-76
2022/07/09 06:52:58;;;;;;;4.23;3.80;;;20.10;75.30;;;;;;10496989;28;20414;-76
2022/07/09 06:58:02;;;;;;;4.40;4.00;;;20.40;76.50;;;;;;10490321;28;20218;-75
2022/07/09 07:03:04;;;;;;;4.93;4.53;;;20.60;75.10;;;;;;10483837;28;20220;-77
2022/07/09 07:08:06;;;;;;;4.40;4.00;;;20.70;73.20;;;;;;10496128;28;20274;-77
2022/07/09 07:13:10;;;;;;;4.63;4.23;;;20.90;71.80;;;;;;10493295;28;20310;-77
2022/07/09 07:18:12;;;;;;;9.60;3.53;;;21.10;71.30;;;;;;10495263;28;20283;-76
2022/07/09 07:23:16;;;;;;;3.90;3.53;;;21.30;71.20;;;;;;10488813;28;20339;-77
2022/07/09 07:28:19;;;;;;;3.67;2.90;;;21.50;69.80;;;;;;10491974;28;20639;-76
2022/07/09 07:33:21;;;;;;;3.63;3.30;;;21.80;68.60;;;;;;10494481;28;20221;-77
2022/07/09 07:38:27;;;;;;;4.10;3.37;;;22.10;67.70;;;;;;10481705;28;20711;-78
2022/07/09 07:43:31;;;;;;;3.80;3.10;;;22.40;67.20;;;;;;10497288;28;20219;-77
2022/07/09 07:48:35;;;;;;;5.63;3.47;;;22.70;66.80;;;;;;10495896;28;20212;-77
2022/07/09 07:53:38;;;;;;;3.47;3.17;;;22.80;66.50;;;;;;10497634;28;20224;-78
2022/07/09 07:58:41;;;;;;;8.87;4.40;;;23.00;67.30;;;;;;10502018;28;20200;-78
2022/07/09 08:03:43;;;;;;;3.87;3.30;;;23.20;66.60;;;;;;10499691;28;20227;-77
2022/07/09 08:08:45;;;;;;;5.60;3.73;;;23.30;66.40;;;;;;10500774;28;20216;-79
2022/07/09 08:13:52;;;;;;;3.60;3.10;;;23.40;66.50;;;;;;10493435;28;20224;-80
2022/07/09 08:18:54;;;;;;;4.27;3.47;;;23.50;66.70;;;;;;10493161;28;20204;-80
2022/07/09 08:23:56;;;;;;;3.20;2.90;;;23.80;66.90;;;;;;10496901;28;20225;-79
2022/07/09 08:29:00;;;;;;;2.70;2.50;;;24.00;64.90;;;;;;10498226;28;20224;-79
2022/07/09 08:34:02;;;;;;;3.00;2.80;;;24.30;64.50;;;;;;10499125;28;20244;-78
2022/07/09 08:39:04;;;;;;;4.10;2.60;;;24.60;63.20;;;;;;10500748;28;20207;-78
2022/07/09 08:44:12;;;;;;;3.10;2.47;;;24.80;63.10;;;;;;10500258;28;20224;-78
2022/07/09 08:49:16;;;;;;;5.70;2.80;;;25.10;62.70;;;;;;10500199;28;20676;-78
2022/07/09 08:54:20;;;;;;;2.50;2.40;;;25.50;61.50;;;;;;10500522;28;20307;-78
2022/07/09 08:59:24;;;;;;;3.20;2.60;;;25.90;60.40;;;;;;10502696;28;20250;-78
2022/07/09 09:04:26;;;;;;;2.70;2.50;;;26.00;58.40;;;;;;10498964;28;20269;-79
2022/07/09 09:09:28;;;;;;;2.53;2.33;;;26.00;58.70;;;;;;10504199;28;20220;-78
2022/07/09 09:14:32;;;;;;;2.40;2.20;;;26.40;58.30;;;;;;10507847;28;20251;-78
2022/07/09 09:19:34;;;;;;;2.47;2.27;;;27.10;57.30;;;;;;10499975;28;20256;-78
2022/07/09 09:24:37;;;;;;;2.30;2.10;;;27.80;56.80;;;;;;10496949;28;20293;-78
2022/07/09 09:29:50;;;;;;;2.87;2.63;;;28.30;56.20;;;;;;10496540;28;20216;-78
2022/07/09 09:34:52;;;;;;;2.40;1.83;;;28.90;55.50;;;;;;10496275;28;20251;-79
2022/07/09 09:39:55;;;;;;;3.13;2.17;;;29.60;55.40;;;;;;10497042;28;20254;-79
2022/07/09 09:45:00;;;;;;;2.20;2.00;;;30.20;53.30;;;;;;10496286;28;20208;-78
2022/07/09 09:50:02;;;;;;;2.10;2.00;;;30.90;52.50;;;;;;10494639;28;20203;-78
2022/07/09 09:55:06;;;;;;;5.30;2.27;;;31.50;49.80;;;;;;10495552;28;20220;-78
2022/07/09 10:00:11;;;;;;;2.27;2.07;;;32.10;50.00;;;;;;10503825;28;20231;-78
2022/07/09 10:05:17;;;;;;;2.30;2.10;;;32.70;48.60;;;;;;10505699;28;20227;-78
2022/07/09 10:10:21;;;;;;;1.70;1.60;;;33.90;48.00;;;;;;10508386;28;20291;-78
2022/07/09 10:15:26;;;;;;;3.33;2.37;;;34.70;46.90;;;;;;10502492;28;20271;-79
2022/07/09 10:20:33;;;;;;;1.90;1.80;;;34.10;46.50;;;;;;10498584;28;20223;-79
2022/07/09 10:25:45;;;;;;;1.90;1.70;;;32.90;47.70;;;;;;10498521;28;20299;-78
2022/07/09 10:30:50;;;;;;;1.83;1.73;;;31.60;48.20;;;;;;10501514;28;20244;-78
2022/07/09 10:35:54;;;;;;;2.10;2.00;;;30.40;49.70;;;;;;10501231;28;20227;-79
2022/07/09 10:40:58;;;;;;;2.07;1.97;;;29.50;52.10;;;;;;10502399;28;20295;-79
2022/07/09 10:46:11;;;;;;;1.90;1.80;;;29.00;52.60;;;;;;10504080;28;20243;-79
2022/07/09 10:51:19;;;;;;;1.90;1.80;;;28.40;51.50;;;;;;10503135;28;20226;-81
2022/07/09 10:56:22;;;;;;;2.33;1.93;;;28.00;52.80;;;;;;10505287;28;20742;-81
2022/07/09 11:01:26;;;;;;;1.93;1.83;;;27.80;53.80;;;;;;10503691;28;20684;-81
2022/07/09 11:06:29;;;;;;;1.87;1.77;;;27.60;53.90;;;;;;10498814;28;20248;-80
2022/07/09 11:11:31;;;;;;;1.97;1.83;;;27.50;52.30;;;;;;10504002;28;20224;-82
2022/07/09 11:16:34;;;;;;;1.63;1.50;;;27.40;52.40;;;;;;10502318;28;20207;-82
2022/07/09 11:21:36;;;;;;;1.83;1.73;;;27.20;52.60;;;;;;10502980;28;20224;-81
2022/07/09 11:26:38;;;;;;;2.07;1.97;;;27.20;53.40;;;;;;10503272;28;20252;-81
2022/07/09 11:31:49;;;;;;;2.23;2.03;;;27.00;53.50;;;;;;10502516;28;20220;-81
2022/07/09 11:36:52;;;;;;;2.10;2.00;;;26.90;54.80;;;;;;10502831;28;20234;-80
2022/07/09 11:42:05;;;;;;;2.07;1.97;;;26.80;55.90;;;;;;10502640;28;20353;-81
2022/07/09 11:47:11;;;;;;;6.20;2.20;;;26.70;56.80;;;;;;10498495;28;20579;-81
2022/07/09 11:52:20;;;;;;;5.33;1.90;;;26.60;55.80;;;;;;10503608;28;20274;-81
2022/07/09 11:57:23;;;;;;;2.17;1.97;;;26.50;56.00;;;;;;10503043;28;20200;-80
2022/07/09 12:02:29;;;;;;;1.60;1.47;;;26.50;55.90;;;;;;10502480;28;20224;-82
2022/07/09 12:07:32;;;;;;;1.80;1.70;;;26.60;56.40;;;;;;10504832;28;20568;-82
2022/07/09 12:12:35;;;;;;;2.03;1.80;;;26.80;55.10;;;;;;10500966;28;20230;-82
2022/07/09 12:17:39;;;;;;;2.27;2.10;;;26.80;54.50;;;;;;10494264;28;20293;-83
2022/07/09 12:22:41;;;;;;;2.00;1.80;;;26.70;55.80;;;;;;10491946;28;20675;-80
2022/07/09 12:27:44;;;;;;;1.90;1.80;;;26.50;56.20;;;;;;10491526;28;20223;-80
2022/07/09 12:32:48;;;;;;;1.97;1.87;;;26.40;56.20;;;;;;10490406;28;20298;-82
2022/07/09 12:37:50;;;;;;;2.60;1.67;;;26.40;55.80;;;;;;10486323;28;20297;-81
2022/07/09 12:42:54;;;;;;;2.40;2.20;;;26.50;57.50;;;;;;10443062;23;20230;-79
2022/07/09 12:47:59;;;;;;;2.17;1.83;;;26.60;57.00;;;;;;10340311;28;20247;-78
2022/07/09 12:53:01;;;;;;;2.93;1.80;;;26.60;55.40;;;;;;10328755;28;20222;-78
2022/07/09 12:58:03;;;;;;;2.00;1.70;;;26.70;55.40;;;;;;10377493;28;20203;-79
2022/07/09 13:03:07;;;;;;;1.60;1.50;;;26.70;57.20;;;;;;10382573;28;20240;-78
2022/07/09 13:08:09;;;;;;;2.33;1.90;;;26.60;56.20;;;;;;10381766;28;20298;-79
2022/07/09 13:13:12;;;;;;;3.53;2.07;;;26.50;56.10;;;;;;10382562;28;20233;-78
2022/07/09 13:18:17;;;;;;;2.30;2.20;;;26.50;55.30;;;;;;10361303;28;20198;-78
2022/07/09 13:23:20;;;;;;;1.80;1.70;;;26.40;55.40;;;;;;10350981;28;20230;-79
2022/07/09 13:28:22;;;;;;;1.93;1.83;;;26.20;55.90;;;;;;10342421;28;20216;-79
2022/07/09 13:33:25;;;;;;;2.40;1.63;;;26.10;56.30;;;;;;10361181;28;20219;-79
2022/07/09 13:38:28;;;;;;;2.77;2.50;;;26.00;55.80;;;;;;10366834;28;20196;-78
2022/07/09 13:43:30;;;;;;;2.10;2.00;;;25.90;56.80;;;;;;10382952;28;20222;-79
2022/07/09 13:48:33;;;;;;;1.93;1.83;;;26.00;57.20;;;;;;10353731;28;20678;-78
2022/07/09 13:53:35;;;;;;;2.23;2.00;;;26.10;56.60;;;;;;10375870;28;20215;-79
2022/07/09 13:58:38;;;;;;;2.23;1.80;;;26.20;56.60;;;;;;10372908;28;20289;-80
2022/07/09 14:03:41;;;;;;;2.63;2.40;;;26.40;56.60;;;;;;10376324;28;20230;-78
2022/07/09 14:08:43;;;;;;;2.43;2.00;;;26.50;54.90;;;;;;10353744;28;20226;-78
2022/07/09 14:13:48;;;;;;;2.07;1.97;;;26.50;56.90;;;;;;10380962;28;20274;-77
2022/07/09 14:18:51;;;;;;;2.00;1.90;;;26.60;55.60;;;;;;10345804;28;20202;-79
2022/07/09 14:23:53;;;;;;;2.03;1.93;;;26.70;55.40;;;;;;10346096;28;20291;-78
2022/07/09 14:28:56;;;;;;;2.43;2.23;;;26.80;55.30;;;;;;10382551;28;20878;-79
2022/07/09 14:34:02;;;;;;;3.53;1.70;;;26.80;56.30;;;;;;10370994;28;20229;-79
2022/07/09 14:39:05;;;;;;;4.13;2.10;;;26.80;56.30;;;;;;10339144;28;20561;-79
2022/07/09 14:44:07;;;;;;;2.23;1.93;;;26.90;55.30;;;;;;10343300;28;20231;-78
2022/07/09 14:49:11;;;;;;;2.67;2.30;;;26.80;54.50;;;;;;10348807;28;20223;-79
2022/07/09 14:54:13;;;;;;;2.40;2.30;;;26.60;55.20;;;;;;10346319;28;20219;-79
2022/07/09 14:59:16;;;;;;;3.53;2.30;;;26.40;55.50;;;;;;10345779;28;20245;-77
2022/07/09 15:04:19;;;;;;;2.17;2.07;;;26.30;54.70;;;;;;10344842;28;20215;-78
2022/07/09 15:09:21;;;;;;;2.10;2.00;;;26.10;56.20;;;;;;10358138;28;20706;-79
2022/07/09 15:14:24;;;;;;;2.20;1.90;;;26.00;55.60;;;;;;10361733;28;20233;-80
2022/07/09 15:19:27;;;;;;;2.40;2.20;;;25.80;56.20;;;;;;10364332;28;20201;-80
2022/07/09 15:24:29;;;;;;;1.80;1.70;;;25.70;56.00;;;;;;10371239;28;20219;-80
2022/07/09 15:29:31;;;;;;;2.30;2.20;;;25.60;56.30;;;;;;10371629;28;20395;-79
2022/07/09 15:34:35;;;;;;;2.23;2.03;;;25.60;57.40;;;;;;10330548;28;20657;-78
2022/07/09 15:39:37;;;;;;;2.50;2.03;;;25.60;56.80;;;;;;10358553;28;20200;-77
2022/07/09 15:44:39;;;;;;;2.80;2.60;;;25.50;57.60;;;;;;10380918;28;20624;-80
2022/07/09 15:49:43;;;;;;;3.20;3.00;;;25.50;57.70;;;;;;10349635;28;20281;-79
2022/07/09 15:54:45;;;;;;;2.73;2.63;;;25.40;58.40;;;;;;10365425;28;20235;-79
2022/07/09 15:59:47;;;;;;;3.03;2.83;;;25.40;59.40;;;;;;10357475;28;20282;-78
2022/07/09 16:04:50;;;;;;;2.57;2.37;;;25.50;59.40;;;;;;10380448;28;20219;-80
2022/07/09 16:09:53;;;;;;;2.30;2.20;;;25.60;59.50;;;;;;10374777;28;20229;-79
2022/07/09 16:14:55;;;;;;;2.23;2.13;;;25.70;58.90;;;;;;10365861;28;20638;-80
2022/07/09 16:19:58;;;;;;;2.30;2.20;;;25.70;58.30;;;;;;10361365;28;20201;-79
2022/07/09 16:25:00;;;;;;;2.77;2.60;;;25.70;57.20;;;;;;10362575;28;20701;-78
2022/07/09 16:30:03;;;;;;;2.30;2.20;;;25.60;58.20;;;;;;10373737;28;20294;-78
2022/07/09 16:35:08;;;;;;;2.50;2.40;;;25.60;58.70;;;;;;10356457;28;20251;-79
2022/07/09 16:40:10;;;;;;;2.70;2.50;;;25.60;58.40;;;;;;10359913;28;20277;-79
2022/07/09 16:45:12;;;;;;;4.07;3.77;;;25.60;58.80;;;;;;10379777;28;20921;-78
2022/07/09 16:50:16;;;;;;;3.67;3.37;;;25.60;59.30;;;;;;10378478;28;20249;-77
2022/07/09 16:55:18;;;;;;;2.93;2.73;;;25.60;59.00;;;;;;10373781;28;20249;-77
2022/07/09 17:00:21;;;;;;;2.90;2.53;;;25.60;59.30;;;;;;10362587;28;20615;-79
2022/07/09 17:05:25;;;;;;;3.10;2.80;;;25.60;59.80;;;;;;10362703;28;20242;-78
2022/07/09 17:10:27;;;;;;;3.20;2.90;;;25.50;60.10;;;;;;10380025;28;20625;-78
2022/07/09 17:15:29;;;;;;;2.97;2.40;;;25.50;60.00;;;;;;10366599;28;20234;-78
2022/07/09 17:20:33;;;;;;;2.90;2.70;;;25.40;59.90;;;;;;10361947;28;20207;-79
2022/07/09 17:25:35;;;;;;;2.80;2.60;;;25.40;61.20;;;;;;10351322;28;20233;-79
2022/07/09 17:30:37;;;;;;;2.97;2.70;;;25.40;60.30;;;;;;10338696;28;20742;-79
2022/07/09 17:35:41;;;;;;;4.73;3.00;;;25.30;62.00;;;;;;10347369;28;20766;-78
2022/07/09 17:40:43;;;;;;;2.40;2.20;;;25.20;61.50;;;;;;10356183;28;20667;-79
2022/07/09 17:45:47;;;;;;;3.40;3.20;;;25.20;60.20;;;;;;10353601;28;20761;-79
2022/07/09 17:50:50;;;;;;;2.63;2.50;;;25.10;61.60;;;;;;10363243;28;20226;-79
2022/07/09 17:55:52;;;;;;;3.27;2.90;;;25.10;61.30;;;;;;10372876;28;20662;-78
2022/07/09 18:00:55;;;;;;;2.23;2.07;;;25.00;62.60;;;;;;10369153;28;20246;-78
2022/07/09 18:05:58;;;;;;;2.10;2.00;;;24.90;62.90;;;;;;10375115;28;20290;-79
2022/07/09 18:11:00;;;;;;;3.23;3.03;;;24.80;63.30;;;;;;10371060;28;20253;-79
2022/07/09 18:16:02;;;;;;;3.23;3.03;;;24.70;63.80;;;;;;10362381;28;21193;-79
2022/07/09 18:21:06;;;;;;;2.77;2.67;;;24.70;64.10;;;;;;10348376;28;20226;-79
2022/07/09 18:26:08;;;;;;;2.73;2.53;;;24.60;62.60;;;;;;10365246;28;20543;-79
2022/07/09 18:31:11;;;;;;;3.03;2.83;;;24.50;65.60;;;;;;10379339;28;20644;-79
2022/07/09 18:36:14;;;;;;;3.87;3.57;;;24.40;65.10;;;;;;10371322;28;20230;-77
2022/07/09 18:41:17;;;;;;;3.23;3.03;;;24.30;64.90;;;;;;10365311;28;20226;-77
2022/07/09 18:46:19;;;;;;;3.10;2.90;;;24.20;66.40;;;;;;10376158;28;20207;-79
2022/07/09 18:51:22;;;;;;;4.57;2.90;;;24.10;66.70;;;;;;10368257;28;20758;-77
2022/07/09 18:56:24;;;;;;;3.17;2.87;;;24.00;66.60;;;;;;10368258;28;20212;-76
2022/07/09 19:01:26;;;;;;;3.90;3.60;;;24.00;66.70;;;;;;10375056;28;20219;-78
2022/07/09 19:06:30;;;;;;;3.67;3.37;;;24.00;66.80;;;;;;10369351;28;20203;-78
2022/07/09 19:11:32;;;;;;;3.10;3.00;;;23.90;69.00;;;;;;10373191;28;20230;-78
2022/07/09 19:16:34;;;;;;;3.30;3.10;;;23.90;67.20;;;;;;10361621;28;20674;-77
2022/07/09 19:21:38;;;;;;;3.93;3.53;;;23.90;72.40;;;;;;10357166;28;20211;-76
2022/07/09 19:26:41;;;;;;;3.07;2.87;;;23.90;73.20;;;;;;10373332;28;20207;-80
2022/07/09 19:37:04;;;;;;;3.90;3.60;;;23.80;68.80;;;;;;10361327;28;20198;-77
2022/07/09 19:42:06;;;;;;;3.10;2.90;;;23.80;69.20;;;;;;10373086;28;20233;-79
2022/07/09 19:47:09;;;;;;;3.90;3.60;;;23.70;69.20;;;;;;10347739;28;20306;-78
2022/07/09 19:52:12;;;;;;;3.80;3.60;;;23.70;69.60;;;;;;10374203;28;20226;-79
2022/07/09 19:57:14;;;;;;;7.13;3.90;;;23.60;69.20;;;;;;10372726;28;20289;-78
2022/07/09 20:02:17;;;;;;;3.70;3.37;;;23.50;68.90;;;;;;10374502;28;20246;-78
2022/07/09 20:07:31;;;;;;;4.27;3.87;;;23.50;69.40;;;;;;10369043;28;20686;-79
2022/07/09 20:12:33;;;;;;;4.10;3.77;;;23.40;69.80;;;;;;10372746;28;20221;-78
2022/07/09 20:17:36;;;;;;;3.70;3.50;;;23.40;70.00;;;;;;10375413;28;20229;-79
2022/07/09 20:22:42;;;;;;;4.13;3.80;;;23.30;70.30;;;;;;10378069;28;20629;-78
2022/07/09 20:27:50;;;;;;;5.93;4.37;;;23.30;73.10;;;;;;10368983;28;20219;-79
2022/07/09 20:32:57;;;;;;;8.30;6.33;;;23.20;81.80;;;;;;10349545;28;20730;-78
2022/07/09 20:38:01;;;;;;;7.57;6.97;;;22.60;85.80;;;;;;10367438;28;20190;-79
2022/07/09 20:43:04;;;;;;;11.50;11.00;;;22.10;90.40;;;;;;10365938;28;20588;-77
2022/07/09 20:48:06;;;;;;;10.63;10.03;;;21.50;92.80;;;;;;10360435;28;20301;-78
2022/07/09 20:53:10;;;;;;;13.27;12.47;;;21.10;93.70;;;;;;10371029;28;20223;-78
2022/07/09 20:58:12;;;;;;;14.57;13.67;;;20.60;95.10;;;;;;10358880;28;20274;-77
2022/07/09 21:03:14;;;;;;;13.30;12.40;;;20.30;96.60;;;;;;10366243;28;20309;-78
2022/07/09 21:08:18;;;;;;;12.53;11.73;;;20.10;98.00;;;;;;10370846;28;20634;-77
2022/07/09 21:13:20;;;;;;;8.07;7.57;;;20.10;99.50;;;;;;10369406;28;20659;-77
2022/07/09 21:23:43;;;;;;;11.73;11.03;;;20.10;99.90;;;;;;10382283;28;20233;-77
2022/07/09 21:28:45;;;;;;;12.03;11.23;;;20.10;99.90;;;;;;10380768;28;20248;-76
2022/07/09 21:33:47;;;;;;;12.07;11.27;;;20.20;99.90;;;;;;10373734;28;20276;-76
2022/07/09 21:38:51;;;;;;;11.33;10.73;;;20.20;99.90;;;;;;10382853;28;20627;-78
2022/07/09 21:43:53;;;;;;;9.70;9.10;;;20.30;99.90;;;;;;10375633;28;20230;-78
2022/07/09 21:48:55;;;;;;;10.63;10.03;;;20.30;99.90;;;;;;10363979;28;20302;-79
2022/07/09 21:53:59;;;;;;;11.07;10.47;;;20.40;99.90;;;;;;10355789;28;20223;-79
2022/07/09 21:59:01;;;;;;;12.90;12.10;;;20.40;99.90;;;;;;10369879;28;20386;-78
2022/07/09 22:04:04;;;;;;;11.60;10.90;;;20.40;99.90;;;;;;10377832;28;20219;-78
2022/07/09 22:09:07;;;;;;;10.10;9.60;;;20.40;99.90;;;;;;10363415;28;20230;-78
2022/07/09 22:14:09;;;;;;;11.17;10.40;;;20.30;99.90;;;;;;10384759;28;20814;-78
2022/07/09 22:19:12;;;;;;;11.57;10.90;;;20.20;99.90;;;;;;10376173;28;20663;-77
2022/07/09 22:24:15;;;;;;;9.80;9.10;;;20.20;99.90;;;;;;10370075;28;20214;-80
2022/07/09 22:29:17;;;;;;;8.47;7.87;;;20.10;99.90;;;;;;10373427;28;20226;-80
2022/07/09 22:34:19;;;;;;;12.23;11.03;;;20.10;99.90;;;;;;10378792;28;20227;-79
2022/07/09 22:39:23;;;;;;;11.80;11.00;;;20.00;99.90;;;;;;10386584;28;20205;-79
2022/07/09 22:44:25;;;;;;;9.07;8.47;;;20.00;99.90;;;;;;10367067;28;20430;-79
2022/07/09 22:49:27;;;;;;;9.10;8.50;;;20.00;99.90;;;;;;10343016;28;20746;-78
2022/07/09 22:54:30;;;;;;;10.17;9.53;;;19.90;99.90;;;;;;10350275;28;20286;-79
2022/07/09 22:59:33;;;;;;;7.67;7.17;;;19.90;99.90;;;;;;10350302;28;20207;-78
2022/07/09 23:04:35;;;;;;;9.30;8.80;;;19.90;99.90;;;;;;10350121;28;20223;-78
2022/07/09 23:09:38;;;;;;;10.40;9.80;;;19.90;99.90;;;;;;10357122;28;20581;-77
2022/07/09 23:14:40;;;;;;;8.90;8.40;;;19.90;99.90;;;;;;10348840;28;20212;-79
2022/07/09 23:19:42;;;;;;;9.00;8.50;;;19.90;99.90;;;;;;10340291;28;20238;-78
2022/07/09 23:24:47;;;;;;;10.47;9.87;;;19.90;99.90;;;;;;10345955;28;20737;-77
2022/07/09 23:29:49;;;;;;;10.37;9.67;;;19.90;99.90;;;;;;10356567;28;20256;-79
2022/07/09 23:34:51;;;;;;;9.97;9.40;;;19.90;99.90;;;;;;10359480;28;20639;-79
2022/07/09 23:39:55;;;;;;;9.10;8.60;;;20.00;99.90;;;;;;10355957;28;20195;-78
2022/07/09 23:44:57;;;;;;;8.17;7.70;;;20.00;99.90;;;;;;10343364;28;20668;-78
2022/07/09 23:49:59;;;;;;;7.70;7.17;;;20.00;99.90;;;;;;10356802;28;20245;-79
2022/07/09 23:55:04;;;;;;;7.43;6.93;;;20.00;99.90;;;;;;10344171;28;20222;-79
